Time;durP1;ratioP1;P1;durP2;ratioP2;P2;SDS_P1;SDS_P2;PMS_P1;PMS_P2;Temp;Humidity;BMP_temperature;BMP_pressure;BME280_temperature;BME280_humidity;BME280_pressure;Samples;Min_cycle;Max_cycle;Signal;HPM_P1;HPM_P2
2022/12/08 00:18:16;;;;;;;2.35;1.30;;;23.40;69.60;;;;;;5058429;27;20478;-75
2022/12/08 00:20:43;;;;;;;8.65;1.73;;;23.60;68.90;;;;;;5061094;28;20053;-72
2022/12/08 00:23:09;;;;;;;4.20;1.27;;;23.60;68.60;;;;;;5046600;28;20022;-73
2022/12/08 00:25:36;;;;;;;5.38;2.30;;;23.60;68.00;;;;;;5041541;28;20032;-73
2022/12/08 00:28:02;;;;;;;4.65;2.05;;;23.60;67.70;;;;;;5041730;28;20076;-75
2022/12/08 00:30:29;;;;;;;4.00;1.70;;;23.70;67.40;;;;;;5045632;28;20028;-72
2022/12/08 00:32:55;;;;;;;6.05;1.40;;;23.70;67.00;;;;;;5040494;28;20113;-75
2022/12/08 00:35:22;;;;;;;1.92;1.27;;;23.70;66.80;;;;;;5043540;28;20029;-75
2022/12/08 00:37:48;;;;;;;4.18;1.60;;;23.70;66.60;;;;;;5044654;28;20029;-75
2022/12/08 00:40:15;;;;;;;3.70;1.30;;;23.70;66.50;;;;;;5045952;28;20476;-74
2022/12/08 00:42:41;;;;;;;6.60;1.52;;;23.70;67.00;;;;;;5045860;28;20017;-77
2022/12/08 00:45:08;;;;;;;3.03;1.13;;;23.70;66.40;;;;;;5047081;28;20024;-74
2022/12/08 00:47:35;;;;;;;4.10;1.95;;;23.70;66.90;;;;;;5045411;28;20036;-73
2022/12/08 00:50:01;;;;;;;4.28;1.90;;;23.70;66.30;;;;;;5045928;28;20032;-77
2022/12/08 00:52:28;;;;;;;3.30;1.20;;;23.70;66.30;;;;;;5047173;28;20057;-75
2022/12/08 00:54:54;;;;;;;5.25;2.53;;;23.70;66.30;;;;;;5044110;28;20539;-76
2022/12/08 00:57:21;;;;;;;1.58;1.08;;;23.70;66.30;;;;;;5046280;28;20111;-77
2022/12/08 00:59:47;;;;;;;5.40;2.70;;;23.70;66.30;;;;;;5044931;28;20427;-75
2022/12/08 01:02:14;;;;;;;4.70;1.50;;;23.70;66.40;;;;;;5043636;28;20108;-78
2022/12/08 01:04:41;;;;;;;4.97;2.55;;;23.70;66.30;;;;;;5042637;28;20026;-77
2022/12/08 01:07:07;;;;;;;5.60;2.20;;;23.70;66.20;;;;;;5043365;28;20040;-77
2022/12/08 01:09:34;;;;;;;5.45;1.58;;;23.60;66.20;;;;;;5045327;28;20542;-77
2022/12/08 01:12:01;;;;;;;5.50;1.35;;;23.60;66.10;;;;;;5040800;28;20018;-78
2022/12/08 01:14:27;;;;;;;5.07;1.70;;;23.60;66.20;;;;;;5045942;28;20044;-77
2022/12/08 01:16:54;;;;;;;3.33;1.20;;;23.60;66.20;;;;;;5041716;28;20053;-78
2022/12/08 01:19:21;;;;;;;2.53;1.27;;;23.60;66.30;;;;;;5027720;28;20611;-77
2022/12/08 01:21:48;;;;;;;5.55;2.25;;;23.60;66.20;;;;;;5032106;28;20148;-77
2022/12/08 01:24:20;;;;;;;4.65;1.42;;;23.60;66.20;;;;;;5029688;28;20017;-76
2022/12/08 01:26:48;;;;;;;3.22;1.15;;;23.60;66.20;;;;;;5033453;28;20052;-76
2022/12/08 01:29:15;;;;;;;3.05;1.50;;;23.60;66.20;;;;;;5027820;28;20025;-76
2022/12/08 01:31:42;;;;;;;1.90;1.10;;;23.50;66.20;;;;;;5030946;28;20026;-76
2022/12/08 01:34:10;;;;;;;3.80;1.58;;;23.50;66.30;;;;;;5065468;28;20021;-77
2022/12/08 01:36:37;;;;;;;4.00;1.52;;;23.50;66.20;;;;;;5030452;28;20022;-77
2022/12/08 01:39:06;;;;;;;2.30;1.20;;;23.50;66.30;;;;;;5031352;28;20472;-76
2022/12/08 01:41:36;;;;;;;2.25;1.30;;;23.50;66.30;;;;;;5034689;28;20029;-77
2022/12/08 01:44:22;;;;;;;8.70;1.35;;;23.50;66.30;;;;;;5030756;28;20060;-74
2022/12/08 01:46:51;;;;;;;2.58;1.25;;;23.50;66.30;;;;;;5027443;28;20488;-74
2022/12/08 01:49:47;;;;;;;2.38;1.27;;;23.50;66.30;;;;;;5033521;28;20030;-75
2022/12/08 01:52:39;;;;;;;2.08;1.02;;;23.50;66.30;;;;;;5028652;28;20026;-75
2022/12/08 01:55:19;;;;;;;4.70;1.30;;;23.50;66.30;;;;;;5030211;28;20072;-74
2022/12/08 01:58:12;;;;;;;7.38;1.60;;;23.50;66.50;;;;;;5026146;28;20053;-74
2022/12/08 02:00:39;;;;;;;10.38;1.27;;;23.50;66.60;;;;;;5028147;28;20033;-74
2022/12/08 02:03:13;;;;;;;10.88;2.50;;;23.50;66.90;;;;;;5032015;28;20021;-75
2022/12/08 02:05:40;;;;;;;8.95;2.17;;;23.40;66.90;;;;;;5029528;28;20394;-74
2022/12/08 02:08:10;;;;;;;5.18;1.30;;;23.40;66.80;;;;;;5029710;28;20038;-75
2022/12/08 02:10:39;;;;;;;3.45;1.80;;;23.40;66.70;;;;;;5030689;28;20022;-75
2022/12/08 02:13:11;;;;;;;1.58;1.27;;;23.30;66.70;;;;;;5028182;28;20024;-75
2022/12/08 02:15:59;;;;;;;6.88;2.63;;;23.40;66.60;;;;;;5030381;28;20033;-74
2022/12/08 02:18:59;;;;;;;9.40;2.45;;;23.30;66.40;;;;;;5030976;28;20067;-76
2022/12/08 02:21:36;;;;;;;10.02;2.05;;;23.30;66.30;;;;;;5029724;28;20017;-75
2022/12/08 02:24:19;;;;;;;4.53;1.58;;;23.30;66.30;;;;;;5031061;28;20057;-75
2022/12/08 02:27:13;;;;;;;2.80;1.80;;;23.30;66.20;;;;;;5030003;28;20052;-74
2022/12/08 02:29:39;;;;;;;5.10;1.70;;;23.30;66.10;;;;;;5026801;28;20099;-74
2022/12/08 02:32:41;;;;;;;4.75;1.05;;;23.30;66.10;;;;;;5030811;28;20024;-75
2022/12/08 02:35:26;;;;;;;1.92;1.33;;;23.30;66.10;;;;;;5027725;28;20112;-75
2022/12/08 02:38:16;;;;;;;2.55;1.08;;;23.20;66.10;;;;;;5059459;28;20067;-75
2022/12/08 02:41:03;;;;;;;7.43;1.23;;;23.20;66.00;;;;;;5027988;28;20026;-75
2022/12/08 02:43:40;;;;;;;6.93;1.58;;;23.20;66.00;;;;;;5005541;28;20428;-75
2022/12/08 02:46:22;;;;;;;4.68;2.08;;;23.20;66.60;;;;;;5030246;28;20124;-74
2022/12/08 02:48:51;;;;;;;2.63;1.20;;;23.20;65.90;;;;;;5025320;28;20444;-75
2022/12/08 02:51:18;;;;;;;1.58;0.95;;;23.20;65.90;;;;;;5030176;28;20056;-74
2022/12/08 02:53:46;;;;;;;2.15;1.23;;;23.20;65.90;;;;;;5031480;28;20045;-75
2022/12/08 02:56:28;;;;;;;9.35;1.02;;;23.10;65.80;;;;;;5035413;28;20587;-75
2022/12/08 02:59:29;;;;;;;2.78;0.90;;;23.10;65.70;;;;;;5027902;28;20553;-75
2022/12/08 03:02:24;;;;;;;1.98;1.45;;;23.10;65.70;;;;;;5028908;28;20026;-75
2022/12/08 03:05:23;;;;;;;;;;;23.10;65.70;;;;;;5028468;28;20551;-75
2022/12/08 03:08:07;;;;;;;3.55;1.67;;;23.10;65.70;;;;;;4995695;28;19924;-75
2022/12/08 03:10:42;;;;;;;4.27;1.37;;;23.10;65.70;;;;;;5028539;28;20026;-75
2022/12/08 03:13:21;;;;;;;5.20;1.98;;;23.10;65.80;;;;;;5028852;28;20018;-75
2022/12/08 03:15:50;;;;;;;3.97;2.33;;;23.10;65.80;;;;;;5029848;28;20068;-71
2022/12/08 03:18:22;;;;;;;5.47;1.40;;;23.00;65.80;;;;;;5029664;28;20053;-71
2022/12/08 03:20:50;;;;;;;2.50;1.27;;;23.00;65.80;;;;;;5028926;28;20040;-72
2022/12/08 03:23:18;;;;;;;3.05;1.45;;;23.00;65.80;;;;;;5031159;28;20033;-71
2022/12/08 03:25:54;;;;;;;4.15;1.92;;;23.00;65.70;;;;;;5028907;28;20480;-73
2022/12/08 03:28:21;;;;;;;4.05;1.88;;;23.00;65.80;;;;;;5029672;28;20029;-71
2022/12/08 03:30:52;;;;;;;1.98;1.25;;;23.00;65.80;;;;;;5028466;28;20010;-70
2022/12/08 03:33:34;;;;;;;4.05;2.17;;;22.90;65.80;;;;;;5029495;28;20468;-72
2022/12/08 03:36:06;;;;;;;3.28;1.30;;;22.90;65.80;;;;;;5027468;28;20052;-72
2022/12/08 03:38:44;;;;;;;4.55;1.50;;;22.90;65.80;;;;;;5027226;28;20025;-73
2022/12/08 03:41:17;;;;;;;2.47;1.50;;;22.90;65.80;;;;;;5029057;28;20087;-72
2022/12/08 03:43:54;;;;;;;4.13;1.67;;;22.90;65.70;;;;;;5025530;28;20069;-72
2022/12/08 03:46:23;;;;;;;3.22;1.52;;;22.90;65.70;;;;;;5026300;28;20064;-73
2022/12/08 03:48:49;;;;;;;12.88;2.22;;;22.90;65.70;;;;;;5027801;28;20064;-76
2022/12/08 03:51:16;;;;;;;28.98;11.38;;;22.90;66.00;;;;;;5029478;28;20018;-73
2022/12/08 03:53:43;;;;;;;40.40;25.70;;;22.90;66.60;;;;;;5024449;28;20028;-75
2022/12/08 03:56:26;;;;;;;38.95;34.10;;;22.90;66.90;;;;;;5021949;28;20104;-78
2022/12/08 03:58:57;;;;;;;27.23;23.40;;;22.90;66.60;;;;;;5024481;28;20088;-73
2022/12/08 04:01:24;;;;;;;18.80;13.10;;;22.90;66.50;;;;;;5025097;28;20397;-71
2022/12/08 04:03:50;;;;;;;9.25;7.88;;;22.80;66.20;;;;;;5029167;28;20018;-73
2022/12/08 04:06:39;;;;;;;9.60;5.20;;;22.80;66.10;;;;;;5029564;28;20061;-72
2022/12/08 04:09:05;;;;;;;5.65;2.47;;;22.80;66.10;;;;;;5022517;28;20072;-74
2022/12/08 04:11:32;;;;;;;6.45;2.22;;;22.80;66.10;;;;;;5029104;28;20048;-74
2022/12/08 04:13:58;;;;;;;22.80;4.35;;;22.80;66.10;;;;;;5027920;28;20482;-71
2022/12/08 04:16:26;;;;;;;21.20;12.43;;;22.80;67.10;;;;;;5028904;28;20053;-76
2022/12/08 04:18:53;;;;;;;28.23;22.85;;;22.80;67.30;;;;;;5027466;28;20025;-75
2022/12/08 04:21:20;;;;;;;31.80;28.10;;;22.80;67.80;;;;;;5030977;28;20419;-76
2022/12/08 04:23:47;;;;;;;20.00;16.95;;;22.80;68.00;;;;;;5028401;28;20060;-70
2022/12/08 04:26:14;;;;;;;9.98;8.85;;;22.80;67.90;;;;;;5027890;28;20044;-75
2022/12/08 04:28:41;;;;;;;8.90;6.97;;;22.80;67.70;;;;;;5027301;28;20036;-70
2022/12/08 04:31:07;;;;;;;5.07;3.75;;;22.80;67.40;;;;;;5030604;28;20025;-74
2022/12/08 04:33:34;;;;;;;5.95;3.08;;;22.90;67.20;;;;;;5028666;28;20357;-70
2022/12/08 04:36:05;;;;;;;3.47;1.75;;;22.90;67.00;;;;;;5028382;28;20025;-74
2022/12/08 04:38:32;;;;;;;2.78;2.00;;;22.80;66.80;;;;;;5044752;28;20029;-73
2022/12/08 04:40:59;;;;;;;4.53;2.30;;;22.80;66.70;;;;;;5026508;28;20028;-74
2022/12/08 04:43:26;;;;;;;5.30;1.65;;;22.80;66.60;;;;;;5029611;28;20546;-74
2022/12/08 04:46:04;;;;;;;1.42;1.27;;;22.80;66.60;;;;;;5024209;28;20037;-73
2022/12/08 04:48:36;;;;;;;1.65;1.33;;;22.80;66.60;;;;;;5026558;28;20014;-72
2022/12/08 04:51:02;;;;;;;3.17;1.42;;;22.90;66.60;;;;;;5025333;28;20071;-72
2022/12/08 04:53:38;;;;;;;4.10;1.60;;;22.90;66.60;;;;;;5061120;28;20483;-73
2022/12/08 04:56:46;;;;;;;13.55;2.20;;;22.90;66.60;;;;;;5027729;28;20049;-76
2022/12/08 04:59:13;;;;;;;7.63;1.92;;;22.90;67.40;;;;;;5028338;28;20038;-71
2022/12/08 05:01:40;;;;;;;10.05;2.75;;;22.90;67.70;;;;;;5032415;28;20113;-73
2022/12/08 05:04:06;;;;;;;12.25;2.67;;;22.90;67.70;;;;;;5028806;28;20029;-72
2022/12/08 05:06:32;;;;;;;14.68;2.30;;;22.90;67.90;;;;;;5031200;28;20079;-75
2022/12/08 05:08:59;;;;;;;6.85;1.65;;;22.90;68.50;;;;;;5030140;28;20018;-73
2022/12/08 05:11:25;;;;;;;10.55;2.67;;;22.90;69.20;;;;;;5029908;28;20029;-73
2022/12/08 05:13:52;;;;;;;6.07;1.85;;;22.90;69.00;;;;;;5029615;28;20021;-72
2022/12/08 05:16:18;;;;;;;4.93;1.45;;;23.00;69.00;;;;;;5029538;28;20049;-73
2022/12/08 05:18:48;;;;;;;6.72;2.63;;;23.00;69.10;;;;;;5031572;28;20017;-72
2022/12/08 05:21:19;;;;;;;3.88;1.13;;;23.00;69.10;;;;;;5030224;28;20014;-72
2022/12/08 05:23:45;;;;;;;2.80;1.23;;;23.00;69.00;;;;;;5029765;28;20460;-76
2022/12/08 05:26:12;;;;;;;9.98;1.40;;;23.00;68.80;;;;;;5030557;28;20044;-78
2022/12/08 05:28:38;;;;;;;1.38;0.82;;;23.10;68.50;;;;;;5031275;28;20033;-73
2022/12/08 05:31:05;;;;;;;2.15;1.27;;;23.10;68.10;;;;;;5027635;28;20018;-76
2022/12/08 05:33:32;;;;;;;3.42;0.93;;;23.10;67.80;;;;;;5031172;28;20029;-73
2022/12/08 05:35:58;;;;;;;3.97;1.60;;;23.10;67.40;;;;;;5032034;28;20013;-74
2022/12/08 05:38:25;;;;;;;6.45;1.60;;;23.10;67.30;;;;;;5046454;28;20454;-74
2022/12/08 05:40:51;;;;;;;2.83;2.03;;;23.20;67.30;;;;;;5031252;28;20025;-75
2022/12/08 05:43:18;;;;;;;8.57;4.65;;;23.20;67.40;;;;;;5029788;28;20466;-73
2022/12/08 05:45:44;;;;;;;11.07;4.45;;;23.20;67.10;;;;;;5031414;28;20030;-73
2022/12/08 05:48:11;;;;;;;2.60;2.03;;;23.20;67.30;;;;;;5030058;28;20014;-74
2022/12/08 05:50:37;;;;;;;5.15;2.17;;;23.30;67.40;;;;;;5031600;28;20024;-74
2022/12/08 05:53:04;;;;;;;3.75;1.60;;;23.30;67.40;;;;;;5030820;28;20101;-72
2022/12/08 05:55:31;;;;;;;3.58;1.70;;;23.30;67.30;;;;;;5031219;28;20025;-72
2022/12/08 05:57:57;;;;;;;1.17;1.08;;;23.40;67.20;;;;;;5030944;28;20026;-74
2022/12/08 06:00:24;;;;;;;6.40;1.70;;;23.40;67.10;;;;;;5031942;28;20036;-73
2022/12/08 10:14:43;;;;;;;7.43;2.10;;;26.90;51.00;;;;;;5084896;27;20470;-73
2022/12/08 10:17:21;;;;;;;8.68;2.40;;;27.50;50.50;;;;;;5070177;28;20046;-72
2022/12/08 10:19:53;;;;;;;5.13;1.85;;;27.60;50.20;;;;;;5048840;28;20047;-73
2022/12/08 10:22:23;;;;;;;4.75;2.38;;;27.70;50.10;;;;;;5076814;28;20051;-74
2022/12/08 10:24:56;;;;;;;1.92;1.50;;;27.80;49.20;;;;;;5073521;28;20024;-74
2022/12/08 10:27:24;;;;;;;2.97;1.98;;;27.90;49.30;;;;;;5073972;28;20066;-72
2022/12/08 10:29:50;;;;;;;2.35;1.80;;;28.00;49.20;;;;;;5064965;28;20036;-72
2022/12/08 10:32:22;;;;;;;3.85;1.23;;;28.10;49.20;;;;;;5073633;28;20474;-73
2022/12/08 10:35:00;;;;;;;3.53;1.35;;;28.10;49.10;;;;;;5068588;28;20555;-76
2022/12/08 10:37:27;;;;;;;5.10;2.20;;;28.20;48.50;;;;;;5072914;28;20021;-71
2022/12/08 10:40:11;;;;;;;4.10;1.20;;;28.30;48.10;;;;;;5064751;28;20478;-73
2022/12/08 10:42:46;;;;;;;9.13;1.35;;;28.30;48.30;;;;;;5070471;28;20028;-75
2022/12/08 10:45:24;;;;;;;6.38;1.73;;;28.30;48.10;;;;;;5073460;28;20021;-73
2022/12/08 10:48:03;;;;;;;2.45;2.15;;;28.40;48.20;;;;;;5069275;28;20031;-75
2022/12/08 10:50:40;;;;;;;1.35;0.85;;;28.50;48.90;;;;;;5070923;28;20129;-76
2022/12/08 10:53:29;;;;;;;4.50;1.27;;;28.50;48.10;;;;;;5072692;28;20035;-75
2022/12/08 10:56:01;;;;;;;6.07;1.55;;;28.50;47.70;;;;;;5078380;28;20024;-77
2022/12/08 10:58:39;;;;;;;5.53;1.83;;;28.60;47.70;;;;;;5068454;28;20092;-77
2022/12/08 11:01:18;;;;;;;4.07;1.30;;;28.70;47.70;;;;;;5059663;28;20074;-75
2022/12/08 11:03:50;;;;;;;2.30;1.23;;;28.70;47.50;;;;;;5067916;28;20361;-77
2022/12/08 11:06:23;;;;;;;4.13;1.90;;;28.70;47.40;;;;;;5077713;28;20032;-75
2022/12/08 11:08:56;;;;;;;6.25;1.63;;;28.80;47.60;;;;;;5075733;28;20058;-76
2022/12/08 11:11:45;;;;;;;7.75;1.90;;;28.80;47.50;;;;;;5066829;28;20016;-76
2022/12/08 11:14:31;;;;;;;7.45;1.48;;;28.80;47.40;;;;;;5056057;28;20037;-76
2022/12/08 11:17:14;;;;;;;3.65;1.45;;;28.90;47.00;;;;;;5054702;28;20086;-75
2022/12/08 11:19:43;;;;;;;13.07;3.22;;;28.90;46.90;;;;;;5051395;28;20021;-76
2022/12/08 11:22:25;;;;;;;4.07;1.73;;;29.00;46.80;;;;;;5047729;28;20439;-75
2022/12/08 11:25:07;;;;;;;2.22;1.65;;;29.00;46.90;;;;;;5055011;28;20021;-76
2022/12/08 11:27:36;;;;;;;1.85;1.13;;;29.10;47.60;;;;;;5053092;28;20029;-77
2022/12/08 11:30:14;;;;;;;6.03;1.65;;;29.10;47.00;;;;;;5056278;28;20170;-76
2022/12/08 11:32:46;;;;;;;1.85;1.17;;;29.10;47.10;;;;;;5045349;28;20382;-75
2022/12/08 11:35:22;;;;;;;3.15;1.55;;;29.20;47.10;;;;;;5042034;28;20376;-76
2022/12/08 11:37:49;;;;;;;4.90;1.55;;;29.30;47.00;;;;;;5055602;28;20013;-77
2022/12/08 11:40:31;;;;;;;5.00;1.35;;;29.30;46.80;;;;;;5059887;28;20070;-76
2022/12/08 11:43:11;;;;;;;3.17;1.67;;;29.30;46.80;;;;;;5057838;28;20176;-75
2022/12/08 11:45:38;;;;;;;4.45;1.70;;;29.30;46.50;;;;;;5048598;28;20025;-76
2022/12/08 11:48:17;;;;;;;8.90;2.40;;;29.30;46.50;;;;;;5055343;28;20115;-77
2022/12/08 11:50:47;;;;;;;8.25;2.60;;;29.30;46.80;;;;;;5056199;28;20367;-77
2022/12/08 11:53:39;;;;;;;4.88;1.70;;;29.30;46.60;;;;;;5057156;28;20090;-76
2022/12/08 11:56:37;;;;;;;6.75;1.70;;;29.30;46.50;;;;;;5047336;28;20116;-77
2022/12/08 11:59:30;;;;;;;5.90;2.53;;;29.40;46.60;;;;;;5047553;28;20038;-77
2022/12/08 12:01:59;;;;;;;12.32;2.05;;;29.40;46.60;;;;;;5039212;28;20402;-77
2022/12/08 12:04:36;;;;;;;4.45;2.35;;;29.40;46.90;;;;;;5051596;28;20095;-77
2022/12/08 12:07:35;;;;;;;7.25;2.45;;;29.40;46.90;;;;;;5055459;28;20450;-78
2022/12/08 12:10:23;;;;;;;4.43;1.85;;;29.50;47.10;;;;;;5050385;28;20484;-77
2022/12/08 12:13:11;;;;;;;9.77;1.48;;;29.60;47.80;;;;;;5050952;28;20436;-75
2022/12/08 12:16:15;;;;;;;5.40;2.13;;;29.60;47.00;;;;;;5051588;28;20021;-77
2022/12/08 12:18:55;;;;;;;5.50;1.50;;;29.70;46.70;;;;;;5056594;28;20029;-77
2022/12/08 12:21:26;;;;;;;3.92;1.73;;;29.70;46.30;;;;;;5050719;28;20016;-77
2022/12/08 12:23:56;;;;;;;5.03;1.85;;;29.70;46.30;;;;;;5055133;28;20464;-77
2022/12/08 12:26:28;;;;;;;8.27;2.00;;;29.80;46.20;;;;;;5051520;28;20020;-76
2022/12/08 12:29:17;;;;;;;6.28;2.30;;;29.90;46.30;;;;;;5056659;28;20021;-77
2022/12/08 12:31:52;;;;;;;6.03;2.08;;;29.90;46.30;;;;;;5053550;28;20028;-78
2022/12/08 12:34:26;;;;;;;6.18;3.10;;;30.00;46.10;;;;;;5048650;28;20021;-72
2022/12/08 12:36:56;;;;;;;10.63;1.90;;;30.10;46.80;;;;;;5058821;28;20032;-75
2022/12/08 12:39:31;;;;;;;7.38;2.10;;;30.30;46.10;;;;;;5057358;28;20031;-74
2022/12/08 12:41:58;;;;;;;;;;;30.30;45.80;;;;;;5062200;28;20039;-76
2022/12/08 12:44:45;;;;;;;4.65;1.58;;;30.40;45.80;;;;;;5061146;28;19919;-77
2022/12/08 12:47:13;;;;;;;3.20;1.60;;;30.50;46.00;;;;;;5052662;28;20024;-77
2022/12/08 12:49:40;;;;;;;9.48;1.58;;;30.60;46.10;;;;;;5039921;28;20048;-75
2022/12/08 12:52:09;;;;;;;8.05;1.85;;;30.70;45.60;;;;;;5054106;28;20017;-79
2022/12/08 12:54:41;;;;;;;6.53;1.50;;;30.90;45.40;;;;;;5053875;28;20741;-74
2022/12/08 12:57:10;;;;;;;5.03;1.65;;;31.00;45.50;;;;;;5060069;28;20100;-77
2022/12/08 12:59:50;;;;;;;4.00;1.52;;;31.10;45.40;;;;;;5056004;28;20032;-77
2022/12/08 13:02:35;;;;;;;14.52;2.53;;;31.20;45.00;;;;;;5059111;28;20505;-76
2022/12/08 13:05:20;;;;;;;;;;;31.30;45.20;;;;;;5047806;28;20505;-78
2022/12/08 13:08:01;;;;;;;4.20;1.75;;;31.40;45.20;;;;;;5057909;28;20432;-74
2022/12/08 13:10:32;;;;;;;6.13;1.83;;;31.40;45.00;;;;;;5060654;28;20017;-72
2022/12/08 13:13:15;;;;;;;8.80;1.98;;;31.50;44.40;;;;;;5056107;28;20033;-74
2022/12/08 13:16:03;;;;;;;2.03;1.25;;;31.50;43.30;;;;;;5054406;28;20025;-72
2022/12/08 13:18:35;;;;;;;4.93;2.38;;;31.60;43.70;;;;;;5047276;28;20449;-70
2022/12/08 13:21:15;;;;;;;4.57;1.95;;;31.60;44.60;;;;;;5055315;28;20017;-72
2022/12/08 13:23:49;;;;;;;7.82;2.88;;;31.70;44.90;;;;;;5056260;28;20105;-72
2022/12/08 13:26:23;;;;;;;9.35;2.67;;;31.70;44.70;;;;;;5059845;28;20021;-78
2022/12/08 13:29:02;;;;;;;5.10;2.17;;;31.70;44.30;;;;;;5046232;28;20025;-77
2022/12/08 13:31:46;;;;;;;4.45;1.88;;;31.70;45.00;;;;;;5052997;28;20029;-77
2022/12/08 13:34:45;;;;;;;2.55;1.90;;;31.80;45.60;;;;;;5060274;28;20475;-76
2022/12/08 13:37:14;;;;;;;7.60;2.38;;;31.80;45.80;;;;;;5054448;28;20095;-74
2022/12/08 13:39:47;;;;;;;9.23;2.00;;;31.70;46.00;;;;;;5052962;28;20032;-73
2022/12/08 13:42:57;;;;;;;5.30;1.80;;;31.80;46.40;;;;;;5059117;28;20033;-73
2022/12/08 13:45:30;;;;;;;8.40;2.33;;;31.80;45.60;;;;;;5057955;28;20401;-73
2022/12/08 13:48:08;;;;;;;13.35;3.45;;;31.80;46.20;;;;;;5051356;28;20070;-75
2022/12/08 13:50:55;;;;;;;8.32;2.58;;;31.80;46.50;;;;;;5053040;28;20401;-74
2022/12/08 13:53:37;;;;;;;8.25;3.13;;;31.90;46.80;;;;;;5046250;28;20115;-73
2022/12/08 13:56:06;;;;;;;10.35;3.20;;;31.90;47.20;;;;;;5055632;28;20063;-72
2022/12/08 13:58:35;;;;;;;6.68;2.55;;;31.80;47.00;;;;;;5053466;28;20112;-76
2022/12/08 14:01:05;;;;;;;9.82;3.13;;;31.80;46.70;;;;;;5054594;28;20024;-76
2022/12/08 14:03:42;;;;;;;6.82;2.30;;;31.80;46.90;;;;;;5057043;28;20036;-74
2022/12/08 14:06:16;;;;;;;9.07;1.92;;;31.80;46.20;;;;;;5049675;28;20013;-72
2022/12/08 14:08:46;;;;;;;11.70;2.93;;;31.80;45.80;;;;;;5055884;28;20029;-72
2022/12/08 18:34:20;;;;;;;28.67;17.33;;;28.90;58.20;;;;;;5059562;28;20415;-67
2022/12/08 18:36:50;;;;;;;21.05;12.60;;;29.00;59.40;;;;;;5043844;28;20044;-68
2022/12/08 18:39:31;;;;;;;17.75;13.05;;;29.00;59.20;;;;;;5036802;28;20033;-68
2022/12/08 18:42:01;;;;;;;14.48;9.57;;;29.00;59.10;;;;;;5034424;28;20029;-68
2022/12/08 18:44:28;;;;;;;25.25;7.50;;;29.00;58.80;;;;;;5032976;28;20029;-69
2022/12/08 18:47:27;;;;;;;13.15;6.45;;;29.00;58.40;;;;;;5035557;28;20018;-69
2022/12/08 18:49:55;;;;;;;10.80;4.40;;;29.10;58.30;;;;;;5034580;28;20034;-70
2022/12/08 18:52:22;;;;;;;7.60;4.68;;;29.10;57.90;;;;;;5051200;28;20052;-67
2022/12/08 18:54:49;;;;;;;14.25;4.57;;;29.10;57.50;;;;;;5040056;28;20098;-66
2022/12/08 18:57:16;;;;;;;18.25;3.72;;;29.10;57.30;;;;;;5037086;28;20021;-67
2022/12/08 18:59:43;;;;;;;6.75;3.58;;;29.10;57.70;;;;;;5040000;28;20029;-69
2022/12/08 19:02:13;;;;;;;8.18;2.78;;;29.10;57.50;;;;;;5035797;28;20511;-66
2022/12/08 19:04:43;;;;;;;11.18;4.00;;;29.10;57.50;;;;;;5038883;28;20032;-67
2022/12/08 19:07:11;;;;;;;10.35;3.10;;;29.10;57.80;;;;;;5033976;28;20052;-66
2022/12/08 19:09:38;;;;;;;7.45;3.10;;;29.10;57.70;;;;;;5032438;28;20036;-67
2022/12/08 19:12:05;;;;;;;4.25;2.20;;;29.00;57.50;;;;;;5030068;28;20053;-68
2022/12/08 19:14:35;;;;;;;6.43;2.90;;;29.00;57.50;;;;;;5033592;28;20032;-68
2022/12/08 19:17:01;;;;;;;7.80;3.30;;;29.00;57.40;;;;;;5034803;28;20017;-66
2022/12/08 19:19:28;;;;;;;5.72;2.30;;;29.00;57.40;;;;;;5033103;28;20037;-65
2022/12/08 19:21:55;;;;;;;7.35;3.92;;;29.00;57.50;;;;;;5033400;28;20038;-69
2022/12/08 19:24:22;;;;;;;7.43;2.65;;;29.00;57.10;;;;;;5032750;28;20112;-67
2022/12/08 19:26:49;;;;;;;7.55;2.67;;;28.90;56.90;;;;;;5032673;28;20032;-67
2022/12/08 19:29:17;;;;;;;8.77;2.55;;;28.90;56.90;;;;;;5032578;28;20478;-72
2022/12/08 19:31:44;;;;;;;9.38;2.72;;;28.90;56.80;;;;;;5037927;28;20517;-67
2022/12/08 19:34:13;;;;;;;6.90;3.15;;;28.90;56.60;;;;;;5020941;28;20053;-69
2022/12/08 19:36:42;;;;;;;6.55;2.65;;;28.90;56.80;;;;;;5021026;28;20036;-68
2022/12/08 19:45:48;;;;;;;7.63;2.50;;;28.80;57.20;;;;;;5019902;28;20068;-66
2022/12/08 19:48:54;;;;;;;8.65;2.25;;;28.80;57.30;;;;;;5020626;28;20109;-65
2022/12/08 19:52:00;;;;;;;7.40;2.83;;;28.80;57.50;;;;;;5017604;28;20476;-65
2022/12/08 19:54:56;;;;;;;9.32;2.65;;;28.70;57.80;;;;;;5017463;28;20033;-66
2022/12/08 19:57:23;;;;;;;9.38;3.38;;;28.70;58.00;;;;;;5013742;28;20029;-66
2022/12/08 19:59:49;;;;;;;6.05;2.25;;;28.60;58.00;;;;;;5021871;28;20033;-66
2022/12/08 20:02:16;;;;;;;11.45;3.22;;;28.70;58.10;;;;;;5021164;28;20029;-65
2022/12/08 20:04:42;;;;;;;6.95;2.58;;;28.60;58.20;;;;;;5017411;28;20464;-66
2022/12/08 20:07:12;;;;;;;9.05;3.25;;;28.60;58.30;;;;;;5016870;28;20030;-65
2022/12/08 20:09:38;;;;;;;7.80;3.33;;;28.50;58.30;;;;;;5024921;28;20034;-65
2022/12/08 20:12:07;;;;;;;7.07;3.05;;;28.60;58.40;;;;;;5024971;28;20029;-68
2022/12/08 20:14:53;;;;;;;6.88;2.60;;;28.50;58.50;;;;;;5024250;28;20604;-66
2022/12/08 20:17:20;;;;;;;12.38;3.30;;;28.50;58.60;;;;;;5020132;28;20457;-66
2022/12/08 20:19:46;;;;;;;9.55;4.03;;;28.50;58.70;;;;;;5021952;28;20147;-68
2022/12/08 20:22:13;;;;;;;5.75;2.03;;;28.50;58.70;;;;;;5023093;28;20115;-66
2022/12/08 20:24:39;;;;;;;4.95;2.22;;;28.50;58.80;;;;;;5024401;28;20028;-66
2022/12/08 20:27:06;;;;;;;6.63;3.10;;;28.40;58.80;;;;;;5023831;28;20117;-66
2022/12/08 20:29:33;;;;;;;11.88;3.22;;;28.40;58.90;;;;;;5022090;28;20492;-65
2022/12/08 20:31:59;;;;;;;5.45;2.58;;;28.40;58.90;;;;;;5024997;28;20034;-65
2022/12/08 20:34:26;;;;;;;10.15;4.05;;;28.40;59.00;;;;;;5022820;28;20036;-66
2022/12/08 20:36:52;;;;;;;5.75;1.88;;;28.40;59.70;;;;;;5025871;28;20022;-64
2022/12/08 20:39:22;;;;;;;9.35;2.30;;;28.40;59.20;;;;;;5022330;28;20059;-68
2022/12/08 20:41:50;;;;;;;10.10;2.65;;;28.30;59.20;;;;;;5010037;28;20040;-65
2022/12/08 20:44:23;;;;;;;8.30;2.65;;;28.30;59.20;;;;;;5024357;28;20079;-67
2022/12/08 20:46:54;;;;;;;11.95;2.85;;;28.30;59.20;;;;;;5024639;28;20053;-70
2022/12/08 20:49:22;;;;;;;5.22;2.67;;;28.30;59.30;;;;;;5027025;28;20487;-67
2022/12/08 20:51:48;;;;;;;9.32;2.55;;;28.30;59.30;;;;;;5022334;28;20041;-67
2022/12/08 20:54:15;;;;;;;10.77;4.60;;;28.20;59.20;;;;;;5025084;28;20472;-66
2022/12/08 20:56:42;;;;;;;8.95;2.58;;;28.20;59.30;;;;;;5026317;28;20108;-67
2022/12/08 20:59:14;;;;;;;8.38;2.47;;;28.20;59.50;;;;;;5026374;28;20029;-68
2022/12/08 21:01:41;;;;;;;7.15;2.60;;;28.20;59.80;;;;;;5023691;28;20033;-66
2022/12/08 21:04:14;;;;;;;4.50;1.95;;;28.20;59.90;;;;;;5022563;28;20083;-65
2022/12/08 21:06:41;;;;;;;7.90;3.22;;;28.10;60.00;;;;;;5024825;28;20052;-66
2022/12/08 21:09:07;;;;;;;14.30;2.63;;;28.20;60.10;;;;;;5023169;28;20049;-66
2022/12/08 21:11:34;;;;;;;11.10;2.35;;;28.10;60.00;;;;;;5022784;28;20049;-67
2022/12/08 21:14:01;;;;;;;10.88;2.63;;;28.10;60.10;;;;;;5023597;28;20022;-67
2022/12/08 21:16:30;;;;;;;10.98;2.92;;;28.10;60.30;;;;;;5021408;28;20033;-69
2022/12/08 21:19:10;;;;;;;7.00;2.50;;;28.10;60.50;;;;;;5017696;28;20032;-67
2022/12/08 21:21:37;;;;;;;7.50;2.13;;;28.10;60.70;;;;;;5038368;28;20037;-67
2022/12/08 21:24:09;;;;;;;11.35;2.22;;;28.00;60.80;;;;;;5019438;28;20022;-67
2022/12/08 21:26:39;;;;;;;7.22;2.35;;;28.00;61.00;;;;;;5024672;28;20101;-70
2022/12/08 21:29:06;;;;;;;5.22;1.92;;;28.00;61.20;;;;;;5025070;28;20025;-66
2022/12/08 21:31:51;;;;;;;10.55;3.65;;;28.00;61.30;;;;;;5026355;28;20053;-67
2022/12/08 21:34:20;;;;;;;5.88;2.22;;;28.00;61.40;;;;;;5022896;28;20467;-70
2022/12/08 21:36:47;;;;;;;9.50;3.00;;;28.00;61.20;;;;;;5042492;28;20087;-67
2022/12/08 21:39:13;;;;;;;10.70;2.17;;;28.00;61.20;;;;;;5025883;28;20092;-69
2022/12/08 21:45:04;;;;;;;8.30;2.83;;;28.00;61.00;;;;;;5021410;28;20032;-67
2022/12/08 21:48:10;;;;;;;9.73;4.32;;;27.90;60.90;;;;;;5025666;28;20116;-67
2022/12/08 21:50:37;;;;;;;9.73;3.00;;;27.90;60.80;;;;;;5024951;28;20041;-70
2022/12/08 21:53:03;;;;;;;5.70;2.78;;;27.90;60.80;;;;;;5028177;28;20028;-68
2022/12/08 21:55:30;;;;;;;7.53;3.10;;;27.90;60.60;;;;;;5057168;28;20025;-67
2022/12/08 21:57:59;;;;;;;8.05;2.20;;;27.90;60.50;;;;;;5024222;28;20037;-68
2022/12/08 22:00:26;;;;;;;8.23;2.83;;;27.90;60.50;;;;;;5024024;28;20467;-66
2022/12/08 22:02:52;;;;;;;6.78;2.70;;;27.90;60.50;;;;;;5022136;28;20033;-68
2022/12/08 22:05:18;;;;;;;6.72;2.45;;;27.80;60.50;;;;;;5025306;28;20029;-70
2022/12/08 22:07:45;;;;;;;10.82;3.75;;;27.80;60.40;;;;;;5024997;28;20461;-70
2022/12/08 22:10:11;;;;;;;10.13;2.42;;;27.80;60.50;;;;;;5027549;28;20049;-67
2022/12/08 22:12:38;;;;;;;7.38;2.28;;;27.80;60.60;;;;;;5021542;28;20021;-66
2022/12/08 22:15:06;;;;;;;5.53;2.17;;;27.80;60.60;;;;;;5023979;28;20033;-68
2022/12/08 22:17:38;;;;;;;7.38;2.97;;;27.80;61.30;;;;;;5026583;28;20026;-68